createdAt,value
2022-09-24T00:01:21.323Z,93675.09
2022-09-24T00:04:10.123Z,93676.00
2022-09-24T00:06:46.153Z,93674.53
2022-09-24T00:09:14.778Z,93674.50
2022-09-24T00:11:43.667Z,93667.38
2022-09-24T00:14:10.364Z,93663.16
2022-09-24T00:16:39.427Z,93659.09
2022-09-24T00:19:06.368Z,93650.88
2022-09-24T00:21:35.932Z,93655.47
2022-09-24T00:24:08.640Z,93652.72
2022-09-24T00:26:51.114Z,93652.44
2022-09-24T00:29:20.953Z,93642.28
2022-09-24T00:31:49.278Z,93640.63
2022-09-24T00:34:16.298Z,93648.44
2022-09-24T00:36:43.338Z,93645.03
2022-09-24T00:39:10.110Z,93641.09
2022-09-24T00:41:38.061Z,93638.31
2022-09-24T00:44:43.220Z,93630.25
2022-09-24T00:47:15.324Z,93626.66
2022-09-24T00:49:42.914Z,93627.41
2022-09-24T00:52:09.678Z,93633.59
2022-09-24T00:54:37.369Z,93621.78
2022-09-24T00:57:04.366Z,93620.97
2022-09-24T00:59:31.406Z,93615.41
2022-09-24T01:01:59.117Z,93605.97
2022-09-24T01:04:27.786Z,93598.03
2022-09-24T01:06:55.795Z,93598.75
2022-09-24T01:09:25.802Z,93593.28
2022-09-24T01:12:09.917Z,93589.69
2022-09-24T01:15:15.336Z,93580.13
2022-09-24T01:18:07.012Z,93581.06
2022-09-24T01:20:42.554Z,93589.06
2022-09-24T01:23:46.268Z,93590.00
2022-09-24T01:26:56.544Z,93595.06
2022-09-24T01:29:43.399Z,93596.50
2022-09-24T01:32:42.041Z,93589.81
2022-09-24T01:35:08.632Z,93591.09
2022-09-24T01:37:39.348Z,93588.69
2022-09-24T01:40:08.973Z,93586.31
2022-09-24T01:42:38.319Z,93587.63
2022-09-24T01:45:06.134Z,93584.88
2022-09-24T01:47:39.907Z,93596.78
2022-09-24T01:50:09.611Z,93594.06
2022-09-24T01:53:11.425Z,93602.50
2022-09-24T01:55:47.812Z,93603.88
2022-09-24T01:58:36.929Z,93591.03
2022-09-24T02:01:09.233Z,93593.81
2022-09-24T02:03:43.149Z,93585.47
2022-09-24T02:06:17.872Z,93571.28
2022-09-24T02:08:47.368Z,93569.66
2022-09-24T02:11:27.982Z,93578.00
2022-09-24T02:14:04.929Z,93566.13
2022-09-24T02:16:39.438Z,93567.34
2022-09-24T02:19:10.006Z,93573.81
2022-09-24T02:21:40.271Z,93579.41
2022-09-24T02:24:33.206Z,93576.06
2022-09-24T02:27:00.095Z,93582.00
2022-09-24T02:29:26.681Z,93567.56
2022-09-24T02:31:56.618Z,93568.91
2022-09-24T02:34:31.852Z,93562.09
2022-09-24T02:37:05.557Z,93555.31
2022-09-24T02:39:32.241Z,93547.63
2022-09-24T02:42:00.881Z,93546.69
2022-09-24T02:44:27.485Z,93541.41
2022-09-24T02:46:54.319Z,93538.66
2022-09-24T02:49:21.013Z,93540.34
2022-09-24T02:51:47.973Z,93539.34
2022-09-24T02:54:14.729Z,93529.19
2022-09-24T02:56:41.578Z,93533.97
2022-09-24T02:59:09.313Z,93538.22
2022-09-24T03:01:36.439Z,93533.75
2022-09-24T03:04:03.916Z,93535.50
2022-09-24T03:06:30.982Z,93536.44
2022-09-24T03:08:58.251Z,93538.66
2022-09-24T03:11:25.570Z,93541.75
2022-09-24T03:13:52.161Z,93538.31
2022-09-24T03:16:19.439Z,93533.75
2022-09-24T03:18:47.696Z,93531.72
2022-09-24T03:21:16.478Z,93521.38
2022-09-24T03:23:43.348Z,93524.91
2022-09-24T03:26:10.405Z,93531.44
2022-09-24T03:28:37.502Z,93527.56
2022-09-24T03:31:04.739Z,93529.16
2022-09-24T03:33:41.745Z,93522.25
2022-09-24T03:36:23.117Z,93524.38
2022-09-24T03:38:51.665Z,93529.66
2022-09-24T03:41:18.521Z,93529.38
2022-09-24T03:43:45.207Z,93527.78
2022-09-24T03:46:13.269Z,93534.75
2022-09-24T03:48:40.925Z,93533.00
2022-09-24T03:51:16.353Z,93535.22
2022-09-24T03:53:44.831Z,93532.91
2022-09-24T03:56:12.735Z,93529.31
2022-09-24T03:58:40.210Z,93518.41
2022-09-24T04:01:08.515Z,93521.69
2022-09-24T04:03:36.139Z,93518.78
2022-09-24T04:06:03.877Z,93515.97
2022-09-24T04:08:31.587Z,93513.16
2022-09-24T04:10:58.776Z,93511.34
2022-09-24T04:13:25.769Z,93508.16
2022-09-24T04:15:53.783Z,93508.88
2022-09-24T04:18:20.880Z,93502.97
2022-09-24T04:20:47.839Z,93502.53
2022-09-24T04:23:14.519Z,93508.63
2022-09-24T04:25:41.142Z,93503.84
2022-09-24T04:28:09.990Z,93504.25
2022-09-24T04:30:38.044Z,93507.69
2022-09-24T04:33:05.405Z,93513.03
2022-09-24T04:35:35.880Z,93512.53
2022-09-24T04:38:03.636Z,93518.28
2022-09-24T04:40:31.146Z,93516.03
2022-09-24T04:42:57.874Z,93522.66
2022-09-24T04:45:25.018Z,93517.94
2022-09-24T04:47:56.195Z,93520.47
2022-09-24T04:50:28.804Z,93521.16
2022-09-24T04:52:55.953Z,93514.34
2022-09-24T04:55:23.393Z,93526.00
2022-09-24T04:57:50.983Z,93522.56
2022-09-24T05:00:20.512Z,93524.41
2022-09-24T05:02:47.398Z,93524.00
2022-09-24T05:05:14.365Z,93517.31
2022-09-24T05:07:41.982Z,93520.13
2022-09-24T05:10:09.160Z,93518.22
2022-09-24T05:12:36.353Z,93529.75
2022-09-24T05:15:03.807Z,93528.91
2022-09-24T05:17:30.466Z,93536.22
2022-09-24T05:19:58.020Z,93533.81
2022-09-24T05:22:27.490Z,93530.25
2022-09-24T05:24:54.540Z,93526.41
2022-09-24T05:27:23.125Z,93533.63
2022-09-24T05:29:50.286Z,93544.50
2022-09-24T05:32:19.551Z,93544.84
2022-09-24T05:34:46.829Z,93539.66
2022-09-24T05:37:14.646Z,93534.53
2022-09-24T05:39:41.475Z,93538.06
2022-09-24T05:42:10.673Z,93542.28
2022-09-24T05:44:38.058Z,93540.81
2022-09-24T05:47:04.891Z,93547.47
2022-09-24T05:49:32.062Z,93543.84
2022-09-24T05:51:58.991Z,93539.84
2022-09-24T05:54:25.902Z,93543.63
2022-09-24T05:56:52.747Z,93556.84
2022-09-24T05:59:19.337Z,93550.94
2022-09-24T06:01:46.006Z,93555.41
2022-09-24T06:04:12.754Z,93551.28
2022-09-24T06:06:39.331Z,93550.47
2022-09-24T06:09:06.110Z,93548.41
2022-09-24T06:11:39.982Z,93552.75
2022-09-24T06:14:09.075Z,93557.19
2022-09-24T06:16:36.248Z,93558.78
2022-09-24T06:19:03.073Z,93554.28
2022-09-24T06:21:29.713Z,93555.19
2022-09-24T06:23:56.435Z,93564.75
2022-09-24T06:26:23.232Z,93560.28
2022-09-24T06:28:49.869Z,93558.41
2022-09-24T06:31:16.572Z,93557.88
2022-09-24T06:33:43.295Z,93559.91
2022-09-24T06:36:10.236Z,93560.94
2022-09-24T06:38:39.341Z,93565.00
2022-09-24T06:41:07.113Z,93561.84
2022-09-24T06:43:34.741Z,93571.47
2022-09-24T06:46:01.950Z,93565.00
2022-09-24T06:48:29.934Z,93565.34
2022-09-24T06:50:56.694Z,93567.13
2022-09-24T06:53:23.870Z,93579.59
2022-09-24T06:55:50.826Z,93574.13
2022-09-24T06:58:22.172Z,93574.75
2022-09-24T07:01:02.203Z,93580.81
2022-09-24T07:03:31.595Z,93574.88
2022-09-24T07:06:04.017Z,93575.91
2022-09-24T07:08:31.112Z,93578.72
2022-09-24T07:10:58.100Z,93580.31
2022-09-24T07:13:24.780Z,93583.56
2022-09-24T07:15:52.728Z,93585.88
2022-09-24T07:18:20.590Z,93587.13
2022-09-24T07:20:56.584Z,93585.41
2022-09-24T07:23:23.945Z,93584.13
2022-09-24T07:25:55.923Z,93577.00
2022-09-24T07:28:22.901Z,93585.31
2022-09-24T07:30:57.463Z,93577.56
2022-09-24T07:33:24.171Z,93589.47
2022-09-24T07:35:51.103Z,93584.72
2022-09-24T07:38:17.764Z,93583.34
2022-09-24T07:40:44.868Z,93583.06
2022-09-24T07:43:13.959Z,93578.63
2022-09-24T07:45:42.042Z,93582.22
2022-09-24T07:48:10.931Z,93584.41
2022-09-24T07:50:42.507Z,93588.28
2022-09-24T07:53:12.551Z,93582.75
2022-09-24T07:55:40.884Z,93587.94
2022-09-24T07:58:14.578Z,93586.75
2022-09-24T08:00:41.413Z,93590.94
2022-09-24T08:03:08.107Z,93591.44
2022-09-24T08:05:34.852Z,93587.16
2022-09-24T08:08:01.785Z,93588.97
2022-09-24T08:10:28.870Z,93587.06
2022-09-24T08:12:58.873Z,93587.28
2022-09-24T08:15:25.954Z,93596.88
2022-09-24T08:17:53.034Z,93592.19
2022-09-24T08:20:19.626Z,93585.38
2022-09-24T08:22:46.315Z,93583.44
2022-09-24T08:25:12.914Z,93587.31
2022-09-24T08:27:39.644Z,93591.28
2022-09-24T08:30:06.977Z,93584.56
2022-09-24T08:32:33.793Z,93584.56
2022-09-24T08:35:00.413Z,93585.78
2022-09-24T08:37:29.944Z,93584.44
2022-09-24T08:39:56.846Z,93584.97
2022-09-24T08:42:35.374Z,93586.44
2022-09-24T08:45:21.315Z,93583.78
2022-09-24T08:48:20.209Z,93589.28
2022-09-24T08:51:01.219Z,93586.34
2022-09-24T08:53:49.881Z,93589.84
2022-09-24T08:56:26.007Z,93585.13
2022-09-24T08:58:59.138Z,93592.63
2022-09-24T09:01:36.033Z,93595.63
2022-09-24T09:04:17.927Z,93601.13
2022-09-24T09:07:20.277Z,93602.44
2022-09-24T09:09:57.251Z,93610.66
2022-09-24T09:12:30.650Z,93610.47
2022-09-24T09:15:06.972Z,93609.91
2022-09-24T09:17:49.022Z,93607.09
2022-09-24T09:20:18.288Z,93609.91
2022-09-24T09:22:51.362Z,93605.25
2022-09-24T09:25:28.383Z,93599.13
2022-09-24T09:28:02.052Z,93598.03
2022-09-24T09:30:38.942Z,93598.97
2022-09-24T09:33:26.346Z,93604.13
2022-09-24T09:36:11.726Z,93602.47
2022-09-24T09:38:59.883Z,93605.81
2022-09-24T09:41:41.669Z,93603.50
2022-09-24T09:44:26.375Z,93599.28
2022-09-24T09:47:08.181Z,93597.00
2022-09-24T09:49:38.586Z,93594.91
2022-09-24T09:52:14.934Z,93596.91
2022-09-24T09:54:42.059Z,93586.63
2022-09-24T09:57:14.689Z,93582.69
2022-09-24T09:59:45.382Z,93586.66
2022-09-24T10:02:22.443Z,93589.88
2022-09-24T10:04:55.139Z,93576.16
2022-09-24T10:07:22.225Z,93584.03
2022-09-24T10:10:03.681Z,93585.09
2022-09-24T10:12:30.679Z,93585.41
2022-09-24T10:15:15.547Z,93584.28
2022-09-24T10:17:43.898Z,93585.25
2022-09-24T10:20:29.299Z,93579.72
2022-09-24T10:23:08.317Z,93577.13
2022-09-24T10:25:37.952Z,93576.63
2022-09-24T10:28:27.600Z,93574.03
2022-09-24T10:30:59.103Z,93575.22
2022-09-24T10:33:26.542Z,93571.91
2022-09-24T10:36:23.829Z,93565.59
2022-09-24T10:39:22.017Z,93568.66
2022-09-24T10:41:50.861Z,93573.13
2022-09-24T10:44:19.223Z,93579.44
2022-09-24T10:46:57.867Z,93578.78
2022-09-24T10:49:42.922Z,93574.16
2022-09-24T10:52:40.415Z,93573.28
2022-09-24T10:55:25.241Z,93577.09
2022-09-24T10:58:03.302Z,93569.44
2022-09-24T11:00:59.260Z,93573.13
2022-09-24T11:03:44.822Z,93565.69
2022-09-24T11:06:40.443Z,93570.66
2022-09-24T11:09:39.336Z,93566.25
2022-09-24T11:12:39.769Z,93561.47
2022-09-24T11:15:31.529Z,93574.50
2022-09-24T11:18:32.416Z,93572.63
2022-09-24T11:21:21.866Z,93565.75
2022-09-24T11:24:04.271Z,93562.22
2022-09-24T11:26:39.103Z,93567.06
2022-09-24T11:29:34.714Z,93561.59
2022-09-24T11:32:13.844Z,93568.03
2022-09-24T11:35:18.190Z,93562.19
2022-09-24T11:38:10.266Z,93562.19
2022-09-24T11:40:46.025Z,93563.09
2022-09-24T11:43:43.909Z,93559.94
2022-09-24T11:46:47.350Z,93558.47
2022-09-24T11:49:20.155Z,93555.47
2022-09-24T11:51:56.918Z,93555.31
2022-09-24T11:54:57.001Z,93550.41
2022-09-24T11:57:35.245Z,93552.78
2022-09-24T12:00:13.781Z,93552.00
2022-09-24T12:02:50.184Z,93553.13
2022-09-24T12:05:19.865Z,93544.56
2022-09-24T12:08:05.045Z,93547.19
2022-09-24T12:10:48.233Z,93545.59
2022-09-24T12:13:18.551Z,93545.59
2022-09-24T12:16:11.811Z,93543.53
2022-09-24T12:19:08.028Z,93533.72
2022-09-24T12:21:41.539Z,93535.03
2022-09-24T12:24:18.821Z,93535.56
2022-09-24T12:26:46.111Z,93531.03
2022-09-24T12:29:55.996Z,93530.34
2022-09-24T12:32:54.172Z,93528.53
2022-09-24T12:35:38.885Z,93532.72
2022-09-24T12:38:30.020Z,93531.56
2022-09-24T12:40:59.403Z,93528.94
2022-09-24T12:43:32.280Z,93523.97
2022-09-24T12:46:05.311Z,93516.66
2022-09-24T12:48:44.339Z,93513.44
2022-09-24T12:51:12.642Z,93517.44
2022-09-24T12:53:42.606Z,93513.13
2022-09-24T12:56:11.411Z,93519.97
2022-09-24T12:58:41.649Z,93514.81
2022-09-24T13:01:27.906Z,93525.25
2022-09-24T13:04:14.814Z,93510.97
2022-09-24T13:06:43.765Z,93513.81
2022-09-24T13:09:34.392Z,93515.47
2022-09-24T13:12:14.293Z,93515.34
2022-09-24T13:14:47.279Z,93510.38
2022-09-24T13:17:15.658Z,93512.25
2022-09-24T13:19:45.601Z,93507.03
2022-09-24T13:22:23.133Z,93507.28
2022-09-24T13:24:52.738Z,93511.88
2022-09-24T13:27:28.156Z,93510.41
2022-09-24T13:30:16.414Z,93511.06
2022-09-24T13:32:59.683Z,93509.59
2022-09-24T13:35:31.768Z,93505.34
2022-09-24T13:38:15.962Z,93509.91
2022-09-24T13:40:51.208Z,93502.09
2022-09-24T13:43:40.993Z,93498.16
2022-09-24T13:46:13.902Z,93500.63
2022-09-24T13:48:53.093Z,93508.22
2022-09-24T13:51:27.304Z,93507.69
2022-09-24T13:54:03.994Z,93500.22
2022-09-24T13:56:31.286Z,93495.13
2022-09-24T13:59:12.487Z,93495.91
2022-09-24T14:01:42.267Z,93500.19
2022-09-24T14:04:20.849Z,93504.47
2022-09-24T14:06:54.918Z,93498.59
2022-09-24T14:09:30.805Z,93494.59
2022-09-24T14:12:15.118Z,93491.84
2022-09-24T14:14:49.601Z,93493.19
2022-09-24T14:17:16.265Z,93496.34
2022-09-24T14:19:43.174Z,93484.72
2022-09-24T14:22:20.058Z,93486.72
2022-09-24T14:25:06.370Z,93482.09
2022-09-24T14:27:37.157Z,93480.44
2022-09-24T14:30:07.358Z,93478.69
2022-09-24T14:32:42.552Z,93487.00
2022-09-24T14:35:18.781Z,93476.50
2022-09-24T14:38:08.951Z,93484.53
2022-09-24T14:40:49.003Z,93482.53
2022-09-24T14:43:24.916Z,93486.66
2022-09-24T14:45:52.099Z,93480.53
2022-09-24T14:48:30.659Z,93479.19
2022-09-24T14:50:57.391Z,93480.81
2022-09-24T14:53:34.135Z,93484.28
2022-09-24T14:56:07.293Z,93475.13
2022-09-24T14:58:38.699Z,93470.25
2022-09-24T15:01:13.842Z,93467.84
2022-09-24T15:03:48.944Z,93477.41
2022-09-24T15:06:23.343Z,93476.81
2022-09-24T15:09:28.923Z,93467.00
2022-09-24T15:12:06.417Z,93470.25
2022-09-24T15:14:33.079Z,93470.56
2022-09-24T15:17:22.874Z,93462.28
2022-09-24T15:19:54.226Z,93459.38
2022-09-24T15:22:22.527Z,93463.75
2022-09-24T15:24:49.334Z,93461.31
2022-09-24T15:27:23.298Z,93467.09
2022-09-24T15:29:50.722Z,93463.97
2022-09-24T15:32:19.580Z,93471.44
2022-09-24T15:34:47.137Z,93458.00
2022-09-24T15:37:20.176Z,93468.13
2022-09-24T15:39:50.810Z,93469.84
2022-09-24T15:42:19.549Z,93471.19
2022-09-24T15:44:47.452Z,93471.38
2022-09-24T15:47:14.559Z,93465.09
2022-09-24T15:49:41.152Z,93466.47
2022-09-24T15:52:27.811Z,93466.97
2022-09-24T15:54:56.752Z,93466.31
2022-09-24T15:57:24.030Z,93468.31
2022-09-24T15:59:50.776Z,93468.66
2022-09-24T16:02:21.875Z,93476.97
2022-09-24T16:04:48.853Z,93475.19
2022-09-24T16:07:15.580Z,93470.19
2022-09-24T16:09:42.243Z,93472.09
2022-09-24T16:12:15.009Z,93473.06
2022-09-24T16:14:41.743Z,93468.00
2022-09-24T16:17:08.457Z,93469.13
2022-09-24T16:19:35.084Z,93471.59
2022-09-24T16:22:01.732Z,93470.50
2022-09-24T16:24:32.616Z,93474.94
2022-09-24T16:26:59.500Z,93476.91
2022-09-24T16:29:26.247Z,93486.94
2022-09-24T16:31:52.904Z,93481.09
2022-09-24T16:34:19.501Z,93479.53
2022-09-24T16:36:47.022Z,93478.09
2022-09-24T16:39:15.690Z,93472.28
2022-09-24T16:41:42.639Z,93479.13
2022-09-24T16:44:15.001Z,93481.31
2022-09-24T16:46:42.900Z,93480.09
2022-09-24T16:49:10.191Z,93479.66
2022-09-24T16:51:37.450Z,93477.22
2022-09-24T16:54:07.631Z,93481.75
2022-09-24T16:56:34.318Z,93476.78
2022-09-24T16:59:00.962Z,93479.19
2022-09-24T17:01:27.860Z,93477.41
2022-09-24T17:03:56.982Z,93469.81
2022-09-24T17:06:30.454Z,93476.31
2022-09-24T17:09:16.431Z,93477.41
2022-09-24T17:11:45.020Z,93475.84
2022-09-24T17:14:12.261Z,93481.69
2022-09-24T17:16:43.185Z,93480.00
2022-09-24T17:19:11.777Z,93482.94
2022-09-24T17:21:41.274Z,93483.16
2022-09-24T17:24:08.498Z,93484.81
2022-09-24T17:26:35.826Z,93486.31
2022-09-24T17:29:02.609Z,93488.81
2022-09-24T17:31:29.400Z,93488.91
2022-09-24T17:34:00.698Z,93489.88
2022-09-24T17:36:29.079Z,93487.75
2022-09-24T17:38:57.476Z,93491.69
2022-09-24T17:41:24.235Z,93492.47
2022-09-24T17:43:51.924Z,93498.66
2022-09-24T17:46:24.001Z,93497.53
2022-09-24T17:48:53.437Z,93500.38
2022-09-24T17:51:36.306Z,93504.41
2022-09-24T17:54:17.529Z,93501.88
2022-09-24T17:56:44.161Z,93507.88
2022-09-24T17:59:12.478Z,93504.94
2022-09-24T18:01:40.885Z,93513.03
2022-09-24T18:04:12.075Z,93503.94
2022-09-24T18:06:40.435Z,93509.94
2022-09-24T18:09:08.081Z,93512.00
2022-09-24T18:11:47.054Z,93509.44
2022-09-24T18:14:17.025Z,93517.16
2022-09-24T18:16:44.908Z,93512.09
2022-09-24T18:19:15.022Z,93516.41
2022-09-24T18:21:41.698Z,93516.06
2022-09-24T18:24:09.405Z,93517.78
2022-09-24T18:26:37.038Z,93518.78
2022-09-24T18:29:11.903Z,93516.22
2022-09-24T18:31:39.414Z,93516.13
2022-09-24T18:34:07.662Z,93522.03
2022-09-24T18:36:37.187Z,93522.31
2022-09-24T18:39:05.851Z,93531.16
2022-09-24T18:41:33.093Z,93530.28
2022-09-24T18:43:59.878Z,93529.53
2022-09-24T18:46:30.226Z,93529.44
2022-09-24T18:48:58.834Z,93525.91
2022-09-24T18:51:34.145Z,93528.56
2022-09-24T18:54:03.779Z,93534.16
2022-09-24T18:56:31.467Z,93532.34
2022-09-24T18:59:00.009Z,93529.59
2022-09-24T19:01:27.584Z,93537.91
2022-09-24T19:03:55.545Z,93528.22
2022-09-24T19:06:22.396Z,93535.84
2022-09-24T19:08:49.108Z,93537.81
2022-09-24T19:11:16.224Z,93540.66
2022-09-24T19:13:47.078Z,93534.13
2022-09-24T19:16:15.177Z,93551.09
2022-09-24T19:18:41.976Z,93541.47
2022-09-24T19:21:11.658Z,93538.13
2022-09-24T19:23:39.956Z,93548.06
2022-09-24T19:26:08.011Z,93544.34
2022-09-24T19:28:35.776Z,93549.19
2022-09-24T19:31:02.920Z,93542.59
2022-09-24T19:33:29.623Z,93544.25
2022-09-24T19:35:58.965Z,93548.16
2022-09-24T19:38:27.781Z,93542.13
2022-09-24T19:41:15.181Z,93543.97
2022-09-24T19:43:45.687Z,93546.84
2022-09-24T19:46:15.704Z,93545.75
2022-09-24T19:48:47.697Z,93541.91
2022-09-24T19:51:15.680Z,93549.97
2022-09-24T19:53:43.373Z,93547.53
2022-09-24T19:56:11.127Z,93549.56
2022-09-24T19:58:37.733Z,93544.16
2022-09-24T20:01:07.341Z,93548.31
2022-09-24T20:03:38.287Z,93548.97
2022-09-24T20:06:12.985Z,93549.63
2022-09-24T20:08:40.251Z,93550.09
2022-09-24T20:11:10.338Z,93549.03
2022-09-24T20:13:38.381Z,93545.63
2022-09-24T20:16:05.287Z,93554.09
2022-09-24T20:18:34.662Z,93546.25
2022-09-24T20:21:05.742Z,93549.69
2022-09-24T20:23:32.423Z,93551.31
2022-09-24T20:26:17.548Z,93549.09
2022-09-24T20:28:44.355Z,93537.13
2022-09-24T20:31:12.677Z,93545.06
2022-09-24T20:33:43.111Z,93545.00
2022-09-24T20:36:16.030Z,93546.88
2022-09-24T20:38:47.275Z,93547.75
2022-09-24T20:41:16.892Z,93551.81
2022-09-24T20:43:45.401Z,93547.28
2022-09-24T20:46:24.502Z,93546.25
2022-09-24T20:48:52.718Z,93540.66
2022-09-24T20:51:21.440Z,93545.31
2022-09-24T20:53:49.036Z,93544.59
2022-09-24T20:56:17.250Z,93543.53
2022-09-24T20:58:44.790Z,93546.25
2022-09-24T21:01:11.521Z,93540.44
2022-09-24T21:03:44.474Z,93543.22
2022-09-24T21:06:13.337Z,93552.00
2022-09-24T21:08:44.694Z,93556.38
2022-09-24T21:11:19.883Z,93555.84
2022-09-24T21:13:50.076Z,93560.56
2022-09-24T21:16:21.960Z,93562.69
2022-09-24T21:18:50.034Z,93559.75
2022-09-24T21:21:19.151Z,93553.94
2022-09-24T21:23:47.963Z,93557.50
2022-09-24T21:26:23.681Z,93560.88
2022-09-24T21:28:53.734Z,93562.41
2022-09-24T21:31:23.191Z,93558.06
2022-09-24T21:33:52.703Z,93554.44
2022-09-24T21:36:25.024Z,93549.75
2022-09-24T21:38:58.929Z,93556.59
2022-09-24T21:41:28.139Z,93554.84
2022-09-24T21:43:58.368Z,93557.94
2022-09-24T21:46:27.041Z,93557.94
2022-09-24T21:48:54.991Z,93555.78
2022-09-24T21:51:22.048Z,93557.72
2022-09-24T21:53:50.095Z,93556.06
2022-09-24T21:56:18.737Z,93558.03
2022-09-24T21:58:49.962Z,93563.38
2022-09-24T22:01:18.879Z,93561.28
2022-09-24T22:03:46.637Z,93560.84
2022-09-24T22:06:16.283Z,93561.91
2022-09-24T22:08:43.166Z,93560.41
2022-09-24T22:11:11.776Z,93558.44
2022-09-24T22:13:39.567Z,93558.06
2022-09-24T22:16:08.348Z,93558.00
2022-09-24T22:18:36.687Z,93556.00
2022-09-24T22:21:12.038Z,93552.78
2022-09-24T22:23:40.117Z,93562.63
2022-09-24T22:26:08.335Z,93556.66
2022-09-24T22:28:35.830Z,93555.16
2022-09-24T22:31:06.334Z,93554.66
2022-09-24T22:33:51.756Z,93557.19
2022-09-24T22:36:19.295Z,93564.34
2022-09-24T22:38:47.768Z,93556.78
2022-09-24T22:41:14.385Z,93560.81
2022-09-24T22:43:41.497Z,93563.31
2022-09-24T22:46:11.520Z,93554.66
2022-09-24T22:48:39.150Z,93566.09
2022-09-24T22:51:07.155Z,93557.22
2022-09-24T22:53:35.631Z,93555.69
2022-09-24T22:56:08.195Z,93556.31
2022-09-24T22:58:35.772Z,93556.53
2022-09-24T23:01:16.968Z,93548.91
2022-09-24T23:03:44.552Z,93545.81
2022-09-24T23:06:11.976Z,93545.56
2022-09-24T23:08:40.668Z,93538.06
2022-09-24T23:11:08.727Z,93539.22
2022-09-24T23:13:36.872Z,93536.44
2022-09-24T23:16:15.276Z,93539.94
2022-09-24T23:18:44.427Z,93543.44
2022-09-24T23:21:14.562Z,93534.81
2022-09-24T23:23:42.266Z,93535.13
2022-09-24T23:26:16.259Z,93532.75
2022-09-24T23:28:45.204Z,93524.09
2022-09-24T23:31:13.917Z,93530.16
2022-09-24T23:33:42.246Z,93522.94
2022-09-24T23:36:11.229Z,93516.94
2022-09-24T23:38:38.695Z,93516.97
2022-09-24T23:41:06.644Z,93523.22
2022-09-24T23:43:33.356Z,93523.53
2022-09-24T23:46:01.243Z,93518.91
2022-09-24T23:48:28.357Z,93523.47
2022-09-24T23:50:55.622Z,93526.25
2022-09-24T23:53:22.283Z,93528.78
2022-09-24T23:55:49.423Z,93522.97
2022-09-24T23:58:18.310Z,93527.53
